Time;durP1;ratioP1;P1;durP2;ratioP2;P2;SDS_P1;SDS_P2;PMS_P1;PMS_P2;Temp;Humidity;BMP_temperature;BMP_pressure;BME280_temperature;BME280_humidity;BME280_pressure;Samples;Min_cycle;Max_cycle;Signal;HPM_P1;HPM_P2
2022/01/27 00:03:25;;;;;;;50.67;31.58;;;;;;;3.25;100.00;102651.84;10458125;28;20409;-56
2022/01/27 00:08:32;;;;;;;55.45;32.08;;;;;;;3.18;100.00;102630.25;10458155;28;20045;-56
2022/01/27 00:13:43;;;;;;;53.20;33.63;;;;;;;3.22;100.00;102610.41;10457447;28;20053;-57
2022/01/27 00:18:48;;;;;;;55.03;31.77;;;;;;;3.30;100.00;102625.09;10459077;28;20093;-56
2022/01/27 00:23:51;;;;;;;58.95;32.58;;;;;;;3.32;100.00;102628.53;10458246;28;20048;-57
2022/01/27 00:28:54;;;;;;;56.15;31.58;;;;;;;3.39;100.00;102625.97;10456985;28;20124;-56
2022/01/27 00:33:57;;;;;;;57.20;34.25;;;;;;;3.33;100.00;102627.69;10456874;28;20503;-58
2022/01/27 00:39:00;;;;;;;49.63;30.95;;;;;;;3.21;100.00;102617.31;10456708;28;20131;-57
2022/01/27 00:44:03;;;;;;;51.65;31.27;;;;;;;3.26;100.00;102597.47;10467557;28;20108;-55
2022/01/27 00:49:05;;;;;;;50.15;29.58;;;;;;;3.32;100.00;102594.03;10464740;28;20060;-58
2022/01/27 00:54:14;;;;;;;48.80;29.50;;;;;;;3.31;100.00;102584.50;10456118;28;20508;-56
2022/01/27 01:04:31;;;;;;;51.20;29.00;;;;;;;3.33;100.00;102552.59;10464751;28;20531;-57
2022/01/27 01:15:00;;;;;;;45.85;27.02;;;;;;;3.30;100.00;102578.47;10464724;28;20078;-58
2022/01/27 01:20:27;;;;;;;47.58;28.65;;;;;;;3.27;100.00;102583.66;10464754;28;20463;-57
2022/01/27 01:30:58;;;;;;;48.57;27.60;;;;;;;3.28;100.00;102535.34;10463528;28;20053;-56
2022/01/27 01:36:12;;;;;;;47.42;29.15;;;;;;;3.31;100.00;102541.38;10464085;28;20056;-57
2022/01/27 01:41:14;;;;;;;43.38;27.42;;;;;;;3.35;100.00;102548.28;10463486;28;20091;-57
2022/01/27 01:46:17;;;;;;;45.92;28.27;;;;;;;3.30;100.00;102546.56;10463559;28;20063;-56
2022/01/27 01:51:25;;;;;;;50.58;28.65;;;;;;;3.40;100.00;102553.47;10463040;28;20067;-58
2022/01/27 01:56:27;;;;;;;47.28;27.38;;;;;;;3.39;100.00;102515.47;10463106;28;20056;-58
2022/01/27 02:01:30;;;;;;;46.17;28.77;;;;;;;3.42;100.00;102518.06;10462919;28;20489;-55
2022/01/27 02:06:40;;;;;;;49.65;25.40;;;;;;;3.37;100.00;102532.75;10482423;28;20057;-53
2022/01/27 02:22:27;;;;;;;47.35;28.38;;;;;;;3.54;100.00;102515.47;10460559;28;20056;-53
2022/01/27 02:27:30;;;;;;;43.83;26.90;;;;;;;3.49;100.00;102490.44;10462589;28;20124;-55
2022/01/27 02:32:32;;;;;;;45.50;27.40;;;;;;;3.51;100.00;102481.84;10461309;28;20049;-56
2022/01/27 02:37:34;;;;;;;43.20;25.90;;;;;;;3.51;100.00;102489.59;10461370;28;20053;-55
2022/01/27 02:42:37;;;;;;;39.67;26.17;;;;;;;3.67;100.00;102498.19;10481503;28;20064;-54
2022/01/27 02:47:39;;;;;;;41.10;24.65;;;;;;;3.73;100.00;102468.81;10460906;28;20507;-54
2022/01/27 02:52:42;;;;;;;40.80;25.75;;;;;;;3.63;100.00;102457.63;10460572;28;20405;-55
2022/01/27 02:57:44;;;;;;;44.13;25.13;;;;;;;3.55;100.00;102436.06;10461315;28;20049;-55
2022/01/27 03:02:46;;;;;;;41.50;25.58;;;;;;;3.57;100.00;102449.88;10460841;28;20045;-58
2022/01/27 03:07:49;;;;;;;39.38;23.88;;;;;;;3.56;100.00;102434.31;10460609;28;20049;-57
2022/01/27 03:12:57;;;;;;;44.97;26.17;;;;;;;3.72;100.00;102439.47;10458795;28;20412;-58
2022/01/27 03:17:59;;;;;;;44.17;25.85;;;;;;;3.68;100.00;102452.44;10466100;28;20045;-56
2022/01/27 03:23:02;;;;;;;38.42;25.95;;;;;;;3.64;100.00;102443.81;10473078;28;20057;-56
2022/01/27 03:28:08;;;;;;;37.72;25.20;;;;;;;3.67;100.00;102430.00;10459464;28;20052;-53
2022/01/27 03:33:10;;;;;;;46.67;27.98;;;;;;;3.56;100.00;102430.00;10458920;28;20049;-57
2022/01/27 03:38:12;;;;;;;45.67;28.00;;;;;;;3.56;100.00;102419.63;10458856;28;20480;-58
2022/01/27 03:43:15;;;;;;;41.63;26.17;;;;;;;3.53;100.00;102391.16;10459000;28;20477;-56
2022/01/27 03:48:17;;;;;;;37.40;24.90;;;;;;;3.65;100.00;102392.88;10458517;28;20055;-54
2022/01/27 03:53:20;;;;;;;43.38;25.48;;;;;;;3.50;100.00;102381.69;10458215;28;20068;-56
2022/01/27 03:58:22;;;;;;;39.38;25.05;;;;;;;3.52;100.00;102374.75;10458135;28;20045;-57
2022/01/27 04:03:26;;;;;;;42.20;24.63;;;;;;;3.52;100.00;102373.91;10457633;28;20049;-56
2022/01/27 04:08:29;;;;;;;42.13;25.33;;;;;;;3.44;100.00;102367.88;10457453;28;20044;-56
2022/01/27 04:13:31;;;;;;;45.25;26.67;;;;;;;3.42;100.00;102356.69;10458098;28;20057;-56
2022/01/27 04:18:34;;;;;;;46.65;25.17;;;;;;;3.45;100.00;102359.25;10457750;28;20049;-58
2022/01/27 04:23:36;;;;;;;43.58;24.90;;;;;;;3.62;100.00;102357.47;10457337;28;20053;-57
2022/01/27 04:28:39;;;;;;;40.88;24.73;;;;;;;3.56;100.00;102343.69;10456112;28;20045;-55
2022/01/27 04:33:42;;;;;;;37.75;22.42;;;;;;;3.59;100.00;102330.72;10456441;28;20079;-58
2022/01/27 04:43:55;;;;;;;46.30;24.30;;;;;;;3.47;100.00;102306.59;10456670;28;20048;-56
2022/01/27 04:49:02;;;;;;;41.72;22.63;;;;;;;3.61;100.00;102295.31;10456678;28;20040;-54
2022/01/27 04:54:17;;;;;;;37.17;22.63;;;;;;;3.66;100.00;102304.78;10456697;28;20056;-53
2022/01/27 04:59:27;;;;;;;38.42;24.20;;;;;;;3.66;100.00;102317.72;10456676;28;20052;-58
2022/01/27 05:04:34;;;;;;;39.85;22.75;;;;;;;3.65;100.00;102263.38;10456753;28;20041;-55
2022/01/27 05:09:37;;;;;;;37.13;21.52;;;;;;;3.74;100.00;102265.03;10456357;28;20049;-54
2022/01/27 05:14:39;;;;;;;36.20;20.77;;;;;;;3.74;100.00;102270.22;10470457;28;20041;-54
2022/01/27 05:19:42;;;;;;;41.67;22.83;;;;;;;3.77;100.00;102249.50;10461031;28;20059;-55
2022/01/27 05:24:44;;;;;;;46.47;22.45;;;;;;;3.82;100.00;102245.13;10455955;28;20056;-54
2022/01/27 05:29:46;;;;;;;36.83;21.08;;;;;;;3.84;100.00;102241.66;10455708;28;20499;-56
2022/01/27 05:34:49;;;;;;;39.47;22.35;;;;;;;3.91;100.00;102239.88;10455758;28;20052;-56
2022/01/27 05:39:51;;;;;;;34.20;20.48;;;;;;;3.88;100.00;102235.59;10456114;28;20045;-56
2022/01/27 05:44:53;;;;;;;37.38;22.33;;;;;;;3.95;100.00;102233.81;10462148;28;20436;-54
2022/01/27 05:49:56;;;;;;;42.50;21.73;;;;;;;4.06;100.00;102234.59;10463549;28;20041;-56
2022/01/27 05:54:59;;;;;;;39.95;20.80;;;;;;;3.94;100.00;102226.91;10481977;28;20049;-56
2022/01/27 06:00:01;;;;;;;40.13;20.90;;;;;;;3.96;100.00;102226.91;10463553;28;20045;-54
2022/01/27 06:05:04;;;;;;;39.38;22.92;;;;;;;3.98;100.00;102214.78;10462557;28;20049;-55
2022/01/27 06:10:07;;;;;;;36.80;21.70;;;;;;;3.90;100.00;102236.44;10462556;28;20396;-55
2022/01/27 06:15:10;;;;;;;44.40;23.85;;;;;;;3.90;100.00;102226.06;10463025;28;20079;-57
2022/01/27 06:20:13;;;;;;;45.35;22.05;;;;;;;3.89;100.00;102215.72;10461823;28;20052;-53
2022/01/27 06:25:16;;;;;;;43.13;24.17;;;;;;;3.95;100.00;102218.28;10461306;28;20056;-57
2022/01/27 06:30:19;;;;;;;47.13;21.52;;;;;;;3.97;100.00;102210.47;10471228;28;20029;-55
2022/01/27 06:35:21;;;;;;;39.22;20.90;;;;;;;3.92;100.00;102202.75;10471484;28;20059;-58
2022/01/27 06:40:24;;;;;;;40.83;23.70;;;;;;;3.94;100.00;102201.00;10461220;28;20503;-58
2022/01/27 06:45:26;;;;;;;44.75;24.05;;;;;;;3.96;100.00;102201.84;10461193;28;20060;-58
2022/01/27 06:50:31;;;;;;;48.10;25.40;;;;;;;3.89;100.00;102182.88;10461316;28;20067;-56
2022/01/27 06:55:34;;;;;;;55.78;28.98;;;;;;;3.87;100.00;102189.81;10460445;28;20390;-55
2022/01/27 07:00:36;;;;;;;51.47;29.73;;;;;;;3.86;100.00;102203.63;10460729;28;20052;-56
2022/01/27 07:05:39;;;;;;;46.30;25.55;;;;;;;3.82;100.00;102186.41;10460512;28;20045;-57
2022/01/27 07:10:42;;;;;;;47.17;24.90;;;;;;;3.83;100.00;102188.13;10480849;28;20136;-59
2022/01/27 07:15:44;;;;;;;52.28;29.33;;;;;;;3.87;100.00;102189.81;10460040;28;20064;-57
2022/01/27 07:20:47;;;;;;;49.53;25.73;;;;;;;3.96;100.00;102204.44;10459948;28;20060;-56
2022/01/27 07:25:49;;;;;;;49.00;25.75;;;;;;;3.95;100.00;102218.28;10459509;28;20049;-55
2022/01/27 07:30:51;;;;;;;44.97;24.02;;;;;;;3.99;100.00;102214.78;10459196;28;20056;-54
2022/01/27 07:35:54;;;;;;;46.22;25.38;;;;;;;4.03;100.00;102218.19;10458854;28;20378;-54
2022/01/27 07:40:56;;;;;;;55.28;26.33;;;;;;;3.93;100.00;102212.22;10458901;28;20056;-53
2022/01/27 07:45:59;;;;;;;57.70;26.88;;;;;;;3.98;100.00;102212.19;10459496;28;20055;-58
2022/01/27 07:51:03;;;;;;;52.97;27.70;;;;;;;3.98;100.00;102212.19;10460202;28;20128;-56
2022/01/27 07:56:05;;;;;;;62.58;30.50;;;;;;;4.02;100.00;102213.91;10458000;28;20057;-55
2022/01/27 08:01:08;;;;;;;51.85;26.73;;;;;;;4.05;100.00;102206.09;10458497;28;20056;-57
2022/01/27 08:06:11;;;;;;;50.75;30.48;;;;;;;4.01;100.00;102207.00;10457036;28;20511;-54
2022/01/27 08:11:13;;;;;;;51.85;26.73;;;;;;;4.03;100.00;102215.63;10456417;28;20432;-57
2022/01/27 08:16:15;;;;;;;55.40;29.65;;;;;;;4.08;100.00;102203.47;10457877;28;20056;-55
2022/01/27 08:21:21;;;;;;;51.45;28.35;;;;;;;4.10;100.00;102201.72;10457284;28;20057;-55
2022/01/27 08:26:38;;;;;;;69.80;31.95;;;;;;;4.12;100.00;102210.38;10472561;28;20059;-53
2022/01/27 08:32:02;;;;;;;57.72;34.33;;;;;;;4.18;100.00;102225.84;10458771;28;20559;-57
2022/01/27 08:37:10;;;;;;;53.15;29.83;;;;;;;4.23;100.00;102199.91;10457317;28;20102;-59
2022/01/27 08:42:13;;;;;;;60.15;31.25;;;;;;;4.33;100.00;102209.31;10456807;28;20386;-59
2022/01/27 08:47:16;;;;;;;53.45;29.00;;;;;;;4.30;100.00;102209.34;10456840;28;20057;-56
2022/01/27 08:52:18;;;;;;;59.95;30.90;;;;;;;4.31;100.00;102212.81;10456499;28;20060;-56
2022/01/27 08:57:20;;;;;;;56.22;28.27;;;;;;;4.38;100.00;102206.69;10456344;28;20477;-57
2022/01/27 09:02:23;;;;;;;54.67;30.08;;;;;;;4.54;100.00;102197.91;10456197;28;20081;-56
2022/01/27 09:07:25;;;;;;;52.17;27.00;;;;;;;4.68;100.00;102202.94;10475826;28;20053;-56
2022/01/27 09:12:28;;;;;;;44.92;26.30;;;;;;;4.67;100.00;102196.03;10454984;28;20067;-57
2022/01/27 09:17:38;;;;;;;59.60;30.77;;;;;;;4.76;100.00;102195.94;10458611;28;20051;-57
2022/01/27 09:22:40;;;;;;;56.03;31.20;;;;;;;4.80;100.00;102195.03;10464133;28;20397;-58
2022/01/27 09:27:43;;;;;;;52.78;28.23;;;;;;;4.89;100.00;102193.19;10464116;28;20053;-59
2022/01/27 09:32:46;;;;;;;50.38;27.73;;;;;;;4.91;100.00;102197.50;10463754;28;20084;-58
2022/01/27 09:37:50;;;;;;;42.63;24.55;;;;;;;4.96;100.00;102192.25;10463402;28;20518;-57
2022/01/27 09:42:54;;;;;;;48.33;27.17;;;;;;;5.07;100.00;102197.34;10463102;28;20413;-59
2022/01/27 09:48:01;;;;;;;45.38;23.67;;;;;;;5.05;100.00;102192.16;10463645;28;20115;-56
2022/01/27 09:53:04;;;;;;;40.38;23.83;;;;;;;5.09;100.00;102203.34;10463309;28;20053;-58
2022/01/27 09:58:08;;;;;;;40.35;25.00;;;;;;;5.17;100.00;102204.97;10462648;28;20049;-58
2022/01/27 10:03:14;;;;;;;38.50;23.67;;;;;;;5.17;100.00;102204.13;10462881;28;20049;-56
2022/01/27 10:08:19;;;;;;;34.67;20.88;;;;;;;5.27;100.00;102202.28;10463128;28;20049;-56
2022/01/27 10:13:36;;;;;;;35.97;20.98;;;;;;;5.31;100.00;102219.53;10462361;28;20049;-59
2022/01/27 10:18:41;;;;;;;38.05;19.98;;;;;;;5.32;100.00;102203.94;10461871;28;20041;-57
2022/01/27 10:23:50;;;;;;;28.48;19.08;;;;;;;5.38;100.00;102210.81;10462106;28;20048;-59
2022/01/27 10:34:03;;;;;;;29.13;18.13;;;;;;;5.50;100.00;102212.38;10461720;28;20049;-58
2022/01/27 10:39:20;;;;;;;29.17;20.30;;;;;;;5.72;100.00;102207.72;10461669;28;20045;-58
2022/01/27 10:44:24;;;;;;;27.20;18.55;;;;;;;5.75;100.00;102205.09;10461386;28;20079;-58
2022/01/27 10:49:31;;;;;;;16.90;13.15;;;;;;;5.68;100.00;102201.72;10460046;28;20049;-57
2022/01/27 10:54:47;;;;;;;24.42;15.32;;;;;;;5.82;100.00;102208.47;10461003;28;20131;-59
2022/01/27 10:59:49;;;;;;;20.30;14.88;;;;;;;5.93;100.00;102193.53;10460700;28;20052;-59
2022/01/27 11:04:51;;;;;;;20.92;14.80;;;;;;;5.82;100.00;102190.28;10480765;28;20048;-58
2022/01/27 11:09:56;;;;;;;23.63;16.67;;;;;;;5.91;100.00;102197.91;10460256;28;20417;-58
2022/01/27 11:14:59;;;;;;;24.25;16.80;;;;;;;5.94;100.00;102208.25;10459014;28;20053;-58
2022/01/27 11:30:20;;;;;;;27.02;16.85;;;;;;;6.00;100.00;102181.34;10459484;28;20049;-59
2022/01/27 11:35:24;;;;;;;29.75;19.30;;;;;;;6.30;100.00;102170.44;10458054;28;20061;-58
2022/01/27 11:40:46;;;;;;;32.78;20.88;;;;;;;6.31;100.00;102168.69;10463410;28;20059;-53
2022/01/27 11:45:49;;;;;;;;;;;;;;;6.37;100.00;102168.59;10470744;28;20128;-58
2022/01/27 11:51:12;;;;;;;36.80;21.48;;;;;;;6.33;100.00;102167.75;10458591;28;20481;-59
2022/01/27 11:56:24;;;;;;;37.20;20.30;;;;;;;6.53;100.00;102169.16;10458367;28;20060;-58
2022/01/27 12:01:28;;;;;;;38.83;21.50;;;;;;;6.42;100.00;102163.28;10458029;28;20397;-58
2022/01/27 12:06:41;;;;;;;25.08;15.40;;;;;;;6.40;100.00;102168.50;10458260;28;20099;-59
2022/01/27 12:12:02;;;;;;;33.50;19.10;;;;;;;6.54;100.00;102176.09;10456841;28;20044;-58
2022/01/27 12:17:10;;;;;;;22.10;14.70;;;;;;;6.49;100.00;102168.34;10457430;28;20041;-59
2022/01/27 12:22:16;;;;;;;26.20;16.85;;;;;;;6.46;100.00;102158.00;10457532;28;20048;-59
2022/01/27 12:27:18;;;;;;;22.17;14.85;;;;;;;6.54;100.00;102150.06;10457123;28;20409;-59
2022/01/27 12:32:41;;;;;;;27.70;17.60;;;;;;;6.49;100.00;102141.50;10456755;28;20049;-59
2022/01/27 12:37:48;;;;;;;36.80;18.52;;;;;;;6.64;100.00;102151.59;10456994;28;20049;-59
2022/01/27 12:43:00;;;;;;;27.75;17.73;;;;;;;6.69;100.00;102146.28;10457060;28;20099;-58
2022/01/27 12:48:13;;;;;;;25.98;15.70;;;;;;;6.63;100.00;102128.22;10456741;28;20408;-58
2022/01/27 12:53:17;;;;;;;37.88;19.70;;;;;;;6.65;100.00;102126.41;10456702;28;20131;-58
2022/01/27 12:58:19;;;;;;;30.98;20.67;;;;;;;6.75;100.00;102116.69;10463229;28;20036;-53
2022/01/27 13:03:22;;;;;;;32.53;21.27;;;;;;;6.72;100.00;102129.75;10469259;28;20055;-58
2022/01/27 13:08:29;;;;;;;30.35;18.42;;;;;;;6.73;100.00;102121.06;10456322;28;20053;-59
2022/01/27 13:13:36;;;;;;;33.83;19.08;;;;;;;6.80;100.00;102118.31;10456794;28;20048;-58
2022/01/27 13:18:57;;;;;;;38.22;18.95;;;;;;;6.93;100.00;102129.34;10456229;28;20091;-59
2022/01/27 13:24:08;;;;;;;33.88;21.52;;;;;;;7.00;100.00;102123.09;10456484;28;20071;-58
2022/01/27 13:29:12;;;;;;;34.67;18.40;;;;;;;7.12;100.00;102126.34;10455953;28;20073;-56
2022/01/27 13:34:15;;;;;;;32.88;18.20;;;;;;;7.22;100.00;102136.50;10454816;28;20436;-60
2022/01/27 13:39:36;;;;;;;19.92;12.90;;;;;;;7.37;100.00;102122.28;10462226;28;20056;-56
2022/01/27 13:44:52;;;;;;;24.70;14.93;;;;;;;7.40;100.00;102110.94;10467109;28;20048;-58
2022/01/27 13:50:08;;;;;;;25.73;15.85;;;;;;;7.44;100.00;102109.97;10455607;28;20063;-60
2022/01/27 13:55:14;;;;;;;23.90;14.35;;;;;;;7.47;100.00;102109.06;10455650;28;20405;-59
2022/01/27 14:00:30;;;;;;;29.45;16.00;;;;;;;7.43;100.00;102116.06;10455618;28;20049;-59
2022/01/27 14:05:33;;;;;;;32.25;14.20;;;;;;;7.31;100.00;102138.03;10458874;28;20508;-58
2022/01/27 14:10:39;;;;;;;26.33;14.70;;;;;;;7.38;100.00;102142.25;10462806;28;20045;-59
2022/01/27 14:15:48;;;;;;;31.65;13.77;;;;;;;7.47;100.00;102148.16;10462683;28;20051;-60
2022/01/27 14:20:55;;;;;;;24.17;13.70;;;;;;;7.52;100.00;102147.13;10481159;28;20135;-60
2022/01/27 14:26:07;;;;;;;28.52;13.68;;;;;;;7.56;100.00;102142.72;10462071;28;20049;-59
2022/01/27 14:31:09;;;;;;;;;;;;;;;7.60;100.00;102149.59;10461137;28;20052;-59
2022/01/27 14:36:12;;;;;;;33.90;12.77;;;;;;;7.69;100.00;102148.50;10461621;28;19942;-58
2022/01/27 14:41:15;;;;;;;17.25;9.05;;;;;;;7.68;100.00;102149.38;10462098;28;20045;-58
2022/01/27 14:46:26;;;;;;;22.00;9.00;;;;;;;7.75;100.00;102158.75;10460943;28;20040;-58
2022/01/27 14:51:33;;;;;;;27.08;8.38;;;;;;;7.69;100.00;102166.75;10461945;28;20045;-59
2022/01/27 14:56:36;;;;;;;24.17;8.52;;;;;;;7.76;100.00;102158.72;10459921;28;20117;-58
2022/01/27 15:01:38;;;;;;;14.85;5.88;;;;;;;7.78;100.00;102167.41;10476905;28;20140;-59
2022/01/27 15:06:41;;;;;;;10.77;4.63;;;;;;;7.75;100.00;102177.91;10460801;28;20071;-59
2022/01/27 15:11:43;;;;;;;12.80;5.18;;;;;;;7.65;100.00;102163.38;10460276;28;20053;-60
2022/01/27 15:22:28;;;;;;;11.10;3.90;;;;;;;7.65;100.00;102186.81;10460219;28;20053;-59
2022/01/27 15:27:30;;;;;;;15.45;4.53;;;;;;;7.54;100.00;102181.00;10458647;28;20052;-58
2022/01/27 15:32:33;;;;;;;9.40;3.97;;;;;;;7.49;100.00;102191.50;10459748;28;20060;-59
2022/01/27 15:37:35;;;;;;;19.38;4.43;;;;;;;7.44;100.00;102201.19;10470543;28;20040;-55
2022/01/27 15:42:38;;;;;;;14.48;4.05;;;;;;;7.44;100.00;102201.19;10465196;28;20075;-59
2022/01/27 15:47:40;;;;;;;19.30;4.50;;;;;;;7.35;100.00;102204.84;10459465;28;20045;-58
2022/01/27 15:52:43;;;;;;;11.65;3.42;;;;;;;7.39;100.00;102203.88;10458751;28;20141;-59
2022/01/27 15:57:46;;;;;;;13.50;3.30;;;;;;;7.31;100.00;102229.22;10459020;28;20056;-60
2022/01/27 16:02:50;;;;;;;17.08;3.75;;;;;;;7.29;100.00;102231.03;10458336;28;20128;-60
2022/01/27 16:07:52;;;;;;;17.92;4.25;;;;;;;7.36;100.00;102240.44;10458162;28;20052;-59
2022/01/27 16:12:57;;;;;;;7.47;2.63;;;;;;;7.29;100.00;102246.66;10456764;28;20045;-59
2022/01/27 16:17:59;;;;;;;8.07;3.28;;;;;;;7.10;100.00;102248.78;10479386;28;20542;-60
2022/01/27 16:23:03;;;;;;;16.75;3.67;;;;;;;7.05;100.00;102254.06;10457850;28;20103;-58
2022/01/27 16:28:06;;;;;;;15.35;2.53;;;;;;;7.02;100.00;102245.47;10456750;28;20047;-59
2022/01/27 16:33:08;;;;;;;16.75;3.95;;;;;;;6.95;100.00;102259.50;10456962;28;20375;-59
2022/01/27 16:38:11;;;;;;;17.60;4.03;;;;;;;6.75;100.00;102258.09;10457376;28;20059;-59
2022/01/27 16:43:15;;;;;;;13.80;4.32;;;;;;;6.73;100.00;102266.84;10456880;28;20059;-59
2022/01/27 16:48:18;;;;;;;13.90;3.80;;;;;;;6.73;100.00;102270.28;10457389;28;20049;-59
2022/01/27 16:53:22;;;;;;;16.77;3.15;;;;;;;6.69;100.00;102266.88;10456648;28;20049;-58
2022/01/27 16:58:24;;;;;;;18.35;3.53;;;;;;;6.82;100.00;102277.06;10477113;28;20123;-59
2022/01/27 17:03:26;;;;;;;16.30;3.13;;;;;;;6.81;100.00;102283.19;10456552;28;20049;-57
2022/01/27 17:08:29;;;;;;;7.55;3.03;;;;;;;6.64;100.00;102299.06;10456307;28;20049;-59
2022/01/27 17:13:31;;;;;;;13.90;3.28;;;;;;;6.68;100.00;102301.59;10456132;28;20056;-59
2022/01/27 17:18:33;;;;;;;16.38;2.80;;;;;;;6.54;100.00;102297.50;10456221;28;20056;-59
2022/01/27 17:23:37;;;;;;;20.42;2.90;;;;;;;6.50;100.00;102310.56;10456297;28;20060;-60
2022/01/27 17:28:43;;;;;;;16.50;3.65;;;;;;;6.55;100.00;102320.91;10455866;28;20056;-57
2022/01/27 17:33:46;;;;;;;14.43;3.53;;;;;;;6.59;100.00;102325.19;10458880;28;20519;-57
2022/01/27 17:38:48;;;;;;;25.45;4.30;;;;;;;6.59;100.00;102333.00;10477210;28;20051;-59
2022/01/27 17:43:59;;;;;;;11.07;3.88;;;;;;;6.57;100.00;102352.09;10463796;28;20049;-59
2022/01/27 17:49:02;;;;;;;9.45;3.30;;;;;;;6.54;100.00;102353.03;10463869;28;20080;-59
2022/01/27 17:54:05;;;;;;;13.98;3.92;;;;;;;6.58;100.00;102359.91;10463087;28;20053;-60
2022/01/27 17:59:07;;;;;;;14.32;3.10;;;;;;;6.51;100.00;102369.53;10462711;28;20485;-58
2022/01/27 18:04:10;;;;;;;19.65;3.72;;;;;;;6.55;100.00;102385.97;10462638;28;20045;-59
2022/01/27 18:09:18;;;;;;;15.25;3.95;;;;;;;6.49;100.00;102386.06;10463061;28;20049;-60
2022/01/27 18:14:25;;;;;;;18.88;3.30;;;;;;;6.54;100.00;102397.28;10461321;28;20048;-59
2022/01/27 18:19:27;;;;;;;11.00;3.67;;;;;;;6.52;100.00;102401.63;10462800;28;20049;-58
2022/01/27 18:24:30;;;;;;;15.77;2.92;;;;;;;6.34;100.00;102423.56;10462041;28;20534;-58
2022/01/27 18:29:34;;;;;;;18.73;3.55;;;;;;;6.45;100.00;102429.47;10460555;28;20504;-58
2022/01/27 18:34:37;;;;;;;18.65;4.10;;;;;;;6.49;100.00;102438.13;10461712;28;20051;-59
2022/01/27 18:39:39;;;;;;;23.17;3.22;;;;;;;6.39;100.00;102429.56;10460571;28;20045;-59
2022/01/27 18:44:41;;;;;;;23.75;4.18;;;;;;;6.33;100.00;102437.44;10461346;28;20044;-57
2022/01/27 18:49:44;;;;;;;22.08;4.32;;;;;;;6.20;100.00;102439.34;10460596;28;20102;-59
2022/01/27 18:54:47;;;;;;;14.48;3.22;;;;;;;6.17;100.00;102444.59;10479959;28;20109;-56
2022/01/27 18:59:49;;;;;;;19.05;3.80;;;;;;;6.16;100.00;102455.88;10470543;28;20051;-59
2022/01/27 19:04:52;;;;;;;18.83;3.65;;;;;;;6.10;100.00;102454.22;10460918;28;20049;-59
2022/01/27 19:09:54;;;;;;;15.32;3.55;;;;;;;6.02;100.00;102456.06;10461618;28;20125;-58
2022/01/27 19:14:57;;;;;;;19.95;4.05;;;;;;;5.87;100.00;102467.44;10460216;28;20049;-58
2022/01/27 19:19:59;;;;;;;15.30;3.85;;;;;;;5.84;100.00;102472.69;10460166;28;20103;-59
2022/01/27 19:25:03;;;;;;;16.75;3.67;;;;;;;5.94;100.00;102481.25;10459830;28;20044;-58
2022/01/27 19:30:06;;;;;;;24.15;4.57;;;;;;;5.89;100.00;102490.84;10459706;28;20053;-60
2022/01/27 19:35:08;;;;;;;15.40;3.20;;;;;;;6.01;100.00;102493.31;10464145;28;20056;-57
2022/01/27 19:40:13;;;;;;;21.42;2.88;;;;;;;6.01;100.00;102508.91;10475124;28;20052;-58
2022/01/27 19:45:15;;;;;;;14.95;3.63;;;;;;;5.88;100.00;102508.16;10458662;28;20405;-60
2022/01/27 19:50:18;;;;;;;14.57;2.97;;;;;;;5.98;100.00;102521.94;10458750;28;20509;-59
2022/01/27 19:55:22;;;;;;;24.45;3.65;;;;;;;5.87;100.00;102529.84;10459350;28;20053;-59
2022/01/27 20:00:25;;;;;;;20.33;5.13;;;;;;;5.87;100.00;102537.63;10458534;28;20095;-59
2022/01/27 20:05:28;;;;;;;15.25;3.88;;;;;;;5.75;100.00;102537.78;10458208;28;20057;-60
2022/01/27 20:10:31;;;;;;;18.10;3.22;;;;;;;5.65;100.00;102547.38;10458048;28;20455;-59
2022/01/27 20:15:36;;;;;;;18.33;3.63;;;;;;;5.79;100.00;102543.78;10469979;28;20100;-57
2022/01/27 20:20:38;;;;;;;20.75;3.83;;;;;;;5.77;100.00;102562.00;10458738;28;20472;-63
2022/01/27 20:25:41;;;;;;;18.55;3.45;;;;;;;5.79;100.00;102557.66;10456330;28;20131;-57
2022/01/27 20:30:43;;;;;;;20.90;4.70;;;;;;;5.85;100.00;102568.00;10457249;28;20064;-58
2022/01/27 20:35:45;;;;;;;17.15;4.10;;;;;;;5.75;100.00;102597.53;10457250;28;20060;-58
2022/01/27 20:40:48;;;;;;;9.18;2.85;;;;;;;5.29;100.00;102608.25;10456887;28;20128;-57
2022/01/27 20:45:53;;;;;;;13.63;2.95;;;;;;;5.31;100.00;102603.91;10456534;28;20499;-57
2022/01/27 20:50:55;;;;;;;22.48;3.72;;;;;;;5.29;100.00;102616.06;10456502;28;20049;-58
2022/01/27 20:55:58;;;;;;;18.67;3.78;;;;;;;5.26;100.00;102606.56;10456573;28;20060;-59
2022/01/27 21:01:00;;;;;;;20.38;3.33;;;;;;;5.18;100.00;102611.78;10455444;28;20045;-58
2022/01/27 21:06:03;;;;;;;24.30;4.60;;;;;;;5.03;100.00;102622.25;10455015;28;20053;-58
2022/01/27 21:11:06;;;;;;;12.95;3.03;;;;;;;5.17;100.00;102633.41;10456413;28;20052;-58
2022/01/27 21:16:08;;;;;;;16.25;3.70;;;;;;;5.08;100.00;102636.09;10463575;28;20131;-57
2022/01/27 21:21:11;;;;;;;18.90;3.60;;;;;;;4.99;100.00;102642.19;10464737;28;20057;-58
2022/01/27 21:26:13;;;;;;;26.27;4.68;;;;;;;4.95;100.00;102655.19;10464274;28;20079;-57
2022/01/27 21:31:17;;;;;;;18.25;3.67;;;;;;;4.89;100.00;102661.22;10464279;28;20056;-57
2022/01/27 21:36:19;;;;;;;27.30;4.28;;;;;;;4.92;100.00;102670.75;10464030;28;20057;-57
2022/01/27 21:41:21;;;;;;;20.85;3.78;;;;;;;4.84;100.00;102669.06;10464182;28;20477;-58
2022/01/27 21:46:27;;;;;;;21.52;3.85;;;;;;;4.83;100.00;102672.50;10463653;28;20076;-59
2022/01/27 21:51:49;;;;;;;20.45;4.43;;;;;;;4.82;100.00;102676.00;10463502;28;20056;-57
2022/01/27 21:56:52;;;;;;;11.55;3.03;;;;;;;4.87;100.00;102681.16;10463751;28;20055;-58
2022/01/27 22:01:59;;;;;;;11.73;3.05;;;;;;;4.87;100.00;102685.50;10463062;28;20120;-56
2022/01/27 22:07:22;;;;;;;13.43;3.00;;;;;;;4.83;100.00;102680.31;10463159;28;20045;-58
2022/01/27 22:12:26;;;;;;;17.77;2.58;;;;;;;4.76;100.00;102678.59;10461281;28;20049;-58
2022/01/27 22:17:28;;;;;;;14.98;2.47;;;;;;;4.88;100.00;102688.09;10463813;28;20053;-58
2022/01/27 22:22:40;;;;;;;16.08;2.65;;;;;;;4.93;100.00;102701.06;10462467;28;20049;-59
2022/01/27 22:27:44;;;;;;;14.85;2.97;;;;;;;4.75;100.00;102696.78;10461216;28;20063;-58
2022/01/27 22:32:46;;;;;;;10.07;1.92;;;;;;;4.70;100.00;102695.91;10461834;28;20128;-58
2022/01/27 22:37:49;;;;;;;13.30;2.17;;;;;;;4.57;100.00;102708.03;10461923;28;20132;-56
2022/01/27 22:42:51;;;;;;;17.23;3.33;;;;;;;4.56;100.00;102719.31;10461407;28;20053;-59
2022/01/27 22:47:54;;;;;;;18.70;2.42;;;;;;;4.49;100.00;102740.91;10460948;28;20145;-58
2022/01/27 22:52:56;;;;;;;20.33;2.90;;;;;;;4.45;100.00;102743.53;10474342;28;20055;-56
2022/01/27 22:57:58;;;;;;;17.98;2.97;;;;;;;4.56;100.00;102751.28;10480867;28;20055;-55
2022/01/27 23:03:01;;;;;;;20.73;3.83;;;;;;;4.43;100.00;102745.22;10460579;28;20071;-57
2022/01/27 23:08:10;;;;;;;19.02;4.03;;;;;;;4.41;100.00;102748.72;10460243;28;20489;-58
2022/01/27 23:23:25;;;;;;;18.52;4.43;;;;;;;4.27;100.00;102764.28;10458302;28;20077;-58
2022/01/27 23:28:32;;;;;;;22.55;4.38;;;;;;;4.27;100.00;102769.47;10459954;28;20099;-60
2022/01/27 23:33:34;;;;;;;21.88;3.83;;;;;;;4.23;100.00;102771.16;10458462;28;20072;-56
2022/01/27 23:39:00;;;;;;;19.65;3.50;;;;;;;4.24;100.00;102793.66;10459079;28;20397;-58
2022/01/27 23:59:51;;;;;;;25.45;4.68;;;;;;;4.11;100.00;102820.41;10457717;28;20115;-56
